Time;durP1;ratioP1;P1;durP2;ratioP2;P2;SDS_P1;SDS_P2;PMS_P1;PMS_P2;Temp;Humidity;BMP_temperature;BMP_pressure;BME280_temperature;BME280_humidity;BME280_pressure;Samples;Min_cycle;Max_cycle;Signal;HPM_P1;HPM_P2
2021/05/11 00:02:21;;;;;;;14.93;3.95;;;15.60;99.90;;;;;;5057798;28;20427;-86
2021/05/11 00:04:47;;;;;;;6.63;3.40;;;15.60;99.90;;;;;;5056833;28;20199;-86
2021/05/11 00:07:12;;;;;;;9.02;3.85;;;15.50;99.90;;;;;;5039967;28;20178;-87
2021/05/11 00:09:38;;;;;;;3.85;3.28;;;15.40;99.90;;;;;;5057851;28;20213;-87
2021/05/11 00:12:05;;;;;;;6.43;3.95;;;15.40;99.90;;;;;;5056492;28;20171;-87
2021/05/11 00:14:30;;;;;;;7.85;3.60;;;15.40;99.90;;;;;;5070651;28;20180;-87
2021/05/11 00:16:56;;;;;;;6.03;3.35;;;15.30;99.90;;;;;;5036468;28;20179;-86
2021/05/11 00:19:22;;;;;;;5.60;3.30;;;15.30;99.90;;;;;;5036474;28;20195;-86
2021/05/11 00:21:47;;;;;;;4.45;3.20;;;15.20;99.90;;;;;;5036221;28;20172;-87
2021/05/11 00:24:16;;;;;;;5.43;2.78;;;15.20;99.90;;;;;;5054974;28;20190;-87
2021/05/11 00:26:41;;;;;;;6.97;3.10;;;15.20;99.90;;;;;;5057492;28;20190;-86
2021/05/11 00:29:07;;;;;;;8.38;3.53;;;15.10;99.90;;;;;;5057206;28;20636;-87
2021/05/11 00:31:33;;;;;;;6.15;2.78;;;15.00;99.90;;;;;;5056389;28;20217;-86
2021/05/11 00:33:59;;;;;;;4.43;2.70;;;15.00;99.90;;;;;;5055658;28;20194;-87
2021/05/11 00:36:24;;;;;;;4.18;2.88;;;14.90;99.90;;;;;;5055975;28;20217;-87
2021/05/11 00:38:50;;;;;;;4.75;2.60;;;14.70;99.90;;;;;;5056827;28;20218;-86
2021/05/11 00:41:16;;;;;;;5.40;3.13;;;14.70;99.90;;;;;;5057022;28;20195;-87
2021/05/11 00:43:46;;;;;;;7.22;3.00;;;14.50;99.90;;;;;;5067284;28;20187;-88
2021/05/11 00:46:13;;;;;;;3.70;2.78;;;14.50;99.90;;;;;;5073294;28;20171;-87
2021/05/11 00:48:40;;;;;;;3.28;2.55;;;14.50;99.90;;;;;;5074158;28;20183;-89
2021/05/11 00:51:07;;;;;;;6.28;2.83;;;14.40;99.90;;;;;;5055881;28;20210;-86
2021/05/11 00:53:34;;;;;;;5.03;2.75;;;14.30;99.90;;;;;;5055194;28;20197;-86
2021/05/11 00:56:00;;;;;;;6.65;2.67;;;14.20;99.90;;;;;;5038855;28;20198;-86
2021/05/11 00:58:26;;;;;;;5.53;2.75;;;14.10;99.90;;;;;;5055464;28;20591;-86
2021/05/11 01:00:52;;;;;;;6.40;3.03;;;14.00;99.90;;;;;;5061240;28;20215;-88
2021/05/11 01:03:18;;;;;;;9.60;3.40;;;13.90;99.90;;;;;;5073933;28;20171;-87
2021/05/11 01:05:44;;;;;;;4.82;3.10;;;13.80;99.90;;;;;;5072216;28;20178;-87
2021/05/11 01:08:10;;;;;;;8.27;3.10;;;13.80;99.90;;;;;;5056963;28;20178;-86
2021/05/11 01:10:37;;;;;;;7.00;3.63;;;13.80;99.90;;;;;;5055486;28;20244;-86
2021/05/11 01:13:03;;;;;;;3.75;2.92;;;13.80;99.90;;;;;;5054923;28;20255;-87
2021/05/11 01:15:30;;;;;;;6.78;3.05;;;13.70;99.90;;;;;;5055380;28;20270;-87
2021/05/11 01:18:02;;;;;;;7.95;3.47;;;13.70;99.90;;;;;;5054960;28;20178;-87
2021/05/11 01:20:37;;;;;;;10.27;3.33;;;13.60;99.90;;;;;;5055163;28;20203;-86
2021/05/11 01:23:14;;;;;;;5.18;3.33;;;13.50;99.90;;;;;;5054912;28;20173;-86
2021/05/11 01:25:42;;;;;;;3.67;2.60;;;13.50;99.90;;;;;;5055120;28;20198;-88
2021/05/11 01:28:19;;;;;;;5.07;2.83;;;13.50;99.90;;;;;;5056168;28;20172;-87
2021/05/11 01:52:24;;;;;;;3.72;2.70;;;13.10;99.90;;;;;;5054367;28;20217;-87
2021/05/11 02:24:11;;;;;;;8.98;3.00;;;12.20;99.90;;;;;;5054998;28;20313;-86
2021/05/11 02:26:37;;;;;;;8.50;3.08;;;12.30;99.90;;;;;;5037302;28;20186;-86
2021/05/11 02:29:03;;;;;;;6.03;3.15;;;12.40;99.90;;;;;;5037110;28;20179;-86
2021/05/11 02:31:28;;;;;;;9.32;3.20;;;12.50;99.90;;;;;;5043004;28;20642;-86
2021/05/11 02:33:54;;;;;;;5.72;3.08;;;12.60;99.90;;;;;;5073697;28;20211;-86
2021/05/11 02:36:19;;;;;;;3.67;2.72;;;12.60;99.90;;;;;;5057580;28;20178;-86
2021/05/11 02:38:45;;;;;;;11.70;4.03;;;12.60;99.90;;;;;;5054906;28;20202;-86
2021/05/11 02:41:11;;;;;;;5.07;3.63;;;12.50;99.90;;;;;;5053397;28;20262;-86
2021/05/11 02:43:38;;;;;;;11.85;3.67;;;12.40;99.90;;;;;;5053163;28;20175;-86
2021/05/11 02:46:04;;;;;;;9.57;3.30;;;12.40;99.90;;;;;;5054732;28;20629;-87
2021/05/11 02:48:30;;;;;;;7.72;3.05;;;12.30;99.90;;;;;;5053949;28;20258;-86
2021/05/11 02:50:55;;;;;;;4.97;3.00;;;12.10;99.90;;;;;;5054588;28;20242;-88
2021/05/11 02:53:21;;;;;;;8.15;3.40;;;12.00;99.90;;;;;;5053714;28;20539;-86
2021/05/11 02:55:47;;;;;;;13.32;3.20;;;12.00;99.90;;;;;;5054456;28;20183;-86
2021/05/11 02:58:13;;;;;;;7.20;3.10;;;12.00;99.90;;;;;;5053234;28;20195;-86
2021/05/11 03:00:39;;;;;;;11.43;3.17;;;12.00;99.90;;;;;;5053240;28;20210;-86
2021/05/11 03:03:05;;;;;;;7.90;3.40;;;11.90;99.90;;;;;;5054623;28;20160;-86
2021/05/11 03:05:31;;;;;;;4.63;3.20;;;11.90;99.90;;;;;;5054173;28;20183;-86
2021/05/11 03:07:57;;;;;;;5.97;3.20;;;11.80;99.90;;;;;;5052799;28;20523;-86
2021/05/11 03:10:22;;;;;;;7.95;3.50;;;11.80;99.90;;;;;;5052981;28;20655;-86
2021/05/11 03:12:49;;;;;;;7.22;2.90;;;11.70;99.90;;;;;;5053051;28;20179;-87
2021/05/11 03:15:15;;;;;;;8.73;3.00;;;11.80;99.90;;;;;;5063885;28;20162;-87
2021/05/11 03:17:41;;;;;;;6.20;3.00;;;11.80;99.90;;;;;;5072065;28;20160;-87
2021/05/11 03:20:09;;;;;;;7.60;3.65;;;11.80;99.90;;;;;;5073130;28;20195;-86
2021/05/11 03:22:35;;;;;;;7.50;2.70;;;11.80;99.90;;;;;;5058618;28;20224;-86
2021/05/11 03:25:01;;;;;;;7.85;3.33;;;11.80;99.90;;;;;;5053190;28;20175;-86
2021/05/11 03:27:27;;;;;;;7.32;3.53;;;11.90;99.90;;;;;;5052813;28;20509;-87
2021/05/11 03:29:52;;;;;;;4.95;2.92;;;11.90;99.90;;;;;;5053755;28;20620;-86
2021/05/11 03:32:18;;;;;;;10.80;3.10;;;11.90;99.90;;;;;;5036775;28;20167;-86
2021/05/11 03:34:43;;;;;;;13.20;3.28;;;11.90;99.90;;;;;;5066407;28;20195;-86
2021/05/11 03:37:09;;;;;;;12.88;2.85;;;11.90;99.90;;;;;;5071989;28;20171;-88
2021/05/11 03:39:40;;;;;;;5.68;3.00;;;11.90;99.90;;;;;;5043484;28;20683;-87
2021/05/11 03:42:20;;;;;;;6.88;3.40;;;11.90;99.90;;;;;;5052732;28;20172;-86
2021/05/11 03:44:49;;;;;;;6.57;3.05;;;11.80;99.90;;;;;;5053954;28;20194;-87
2021/05/11 03:47:18;;;;;;;4.97;3.03;;;11.90;99.90;;;;;;5036649;28;20182;-86
2021/05/11 03:49:43;;;;;;;4.35;2.60;;;11.90;99.90;;;;;;5053581;28;20562;-86
2021/05/11 03:52:09;;;;;;;9.45;4.20;;;11.80;99.90;;;;;;5052539;28;20262;-86
2021/05/11 03:54:35;;;;;;;8.93;3.65;;;11.70;99.90;;;;;;5053990;28;20202;-87
2021/05/11 03:57:01;;;;;;;9.32;3.00;;;11.70;99.90;;;;;;5053578;28;20178;-86
2021/05/11 03:59:27;;;;;;;5.18;2.45;;;11.60;99.90;;;;;;5032366;28;20606;-87
2021/05/11 04:01:53;;;;;;;3.58;3.13;;;11.60;99.90;;;;;;5065722;28;20685;-87
2021/05/11 04:04:20;;;;;;;3.92;3.05;;;11.60;99.90;;;;;;5034593;28;20160;-86
2021/05/11 04:06:46;;;;;;;9.65;3.38;;;11.70;99.90;;;;;;5053103;28;20604;-86
2021/05/11 04:09:26;;;;;;;7.38;2.70;;;11.70;99.90;;;;;;5054147;28;20171;-87
2021/05/11 04:17:07;;;;;;;8.32;2.53;;;11.30;99.90;;;;;;5053753;28;20171;-87
2021/05/11 04:19:34;;;;;;;6.25;2.55;;;11.40;99.90;;;;;;5051970;28;20656;-86
2021/05/11 04:22:00;;;;;;;4.93;2.67;;;11.50;99.90;;;;;;5052444;28;20172;-88
2021/05/11 04:24:27;;;;;;;8.05;2.97;;;11.60;99.90;;;;;;5053476;28;20523;-86
2021/05/11 04:26:52;;;;;;;5.35;2.63;;;11.60;99.90;;;;;;5053586;28;20163;-87
2021/05/11 04:29:18;;;;;;;5.72;3.30;;;11.70;99.90;;;;;;5053104;28;20182;-86
2021/05/11 04:31:44;;;;;;;6.43;2.72;;;11.70;99.90;;;;;;5053409;28;20175;-87
2021/05/11 04:34:09;;;;;;;7.38;2.72;;;11.80;99.90;;;;;;5051940;28;20270;-87
2021/05/11 04:36:35;;;;;;;4.90;3.33;;;11.80;99.90;;;;;;5034042;28;20543;-86
2021/05/11 04:39:01;;;;;;;6.18;3.05;;;11.70;99.90;;;;;;5054110;28;20290;-87
2021/05/11 04:41:26;;;;;;;6.97;3.33;;;11.80;99.90;;;;;;5052508;28;20168;-86
2021/05/11 04:43:52;;;;;;;7.75;3.42;;;11.80;99.90;;;;;;5052230;28;20179;-87
2021/05/11 04:48:46;;;;;;;6.28;3.38;;;11.70;99.90;;;;;;5056990;28;20203;-86
2021/05/11 04:51:13;;;;;;;8.50;3.17;;;11.70;99.90;;;;;;5055929;28;20172;-87
2021/05/11 04:53:38;;;;;;;9.45;3.20;;;11.70;99.90;;;;;;5055764;28;20172;-86
2021/05/11 04:56:05;;;;;;;7.30;3.90;;;11.80;99.90;;;;;;5055854;28;20187;-87
2021/05/11 04:58:31;;;;;;;8.20;4.68;;;11.90;99.90;;;;;;5056732;28;20180;-87
2021/05/11 05:01:01;;;;;;;7.68;3.80;;;12.10;99.90;;;;;;5056207;28;20196;-86
2021/05/11 05:03:28;;;;;;;6.93;3.70;;;12.40;99.90;;;;;;5055772;28;20159;-87
2021/05/11 05:05:54;;;;;;;7.40;2.97;;;12.60;99.90;;;;;;5055351;28;20707;-86
2021/05/11 05:08:20;;;;;;;5.15;3.17;;;12.90;99.90;;;;;;5055234;28;20171;-86
2021/05/11 05:10:46;;;;;;;8.90;2.65;;;13.20;99.90;;;;;;5056725;28;20182;-87
2021/05/11 05:13:22;;;;;;;7.13;2.55;;;13.50;99.90;;;;;;5056069;28;20175;-87
2021/05/11 05:15:55;;;;;;;4.65;2.50;;;13.60;99.90;;;;;;5056075;28;20178;-87
2021/05/11 05:18:21;;;;;;;4.80;2.22;;;13.80;99.90;;;;;;5055679;28;20159;-87
2021/05/11 05:20:50;;;;;;;3.55;2.30;;;14.00;99.90;;;;;;5055479;28;20713;-87
2021/05/11 05:23:17;;;;;;;5.63;2.30;;;14.20;99.90;;;;;;5055606;28;20633;-87
2021/05/11 05:25:53;;;;;;;6.97;3.17;;;14.40;99.90;;;;;;5056447;28;20167;-87
2021/05/11 05:28:19;;;;;;;5.10;2.60;;;14.50;99.90;;;;;;5057103;28;20160;-87
2021/05/11 05:30:45;;;;;;;5.93;2.97;;;14.50;99.90;;;;;;5055724;28;20167;-87
2021/05/11 05:33:10;;;;;;;9.38;2.88;;;14.60;99.90;;;;;;5056329;28;20187;-87
2021/05/11 05:35:36;;;;;;;4.38;2.55;;;14.70;99.90;;;;;;5054899;28;20274;-87
2021/05/11 05:38:02;;;;;;;8.27;2.47;;;15.20;99.90;;;;;;5056948;28;20184;-87
2021/05/11 05:40:27;;;;;;;4.70;2.20;;;15.80;99.90;;;;;;5057055;28;20199;-87
2021/05/11 05:42:53;;;;;;;7.90;2.50;;;16.30;99.90;;;;;;5059489;28;20176;-87
2021/05/11 05:45:20;;;;;;;3.72;2.15;;;16.70;99.90;;;;;;5054374;28;20182;-87
2021/05/11 05:47:52;;;;;;;6.50;2.30;;;17.00;99.90;;;;;;5043455;28;20245;-88
2021/05/11 05:50:23;;;;;;;7.22;2.45;;;17.10;99.90;;;;;;5070137;28;20172;-88
2021/05/11 05:52:51;;;;;;;5.85;2.15;;;17.20;99.90;;;;;;5055790;28;20156;-87
2021/05/11 05:55:17;;;;;;;4.05;2.38;;;17.50;99.90;;;;;;5069993;28;20215;-88
2021/05/11 05:57:43;;;;;;;9.02;2.30;;;17.80;99.90;;;;;;5053405;28;20167;-87
2021/05/11 06:00:09;;;;;;;8.40;2.53;;;18.00;99.90;;;;;;5061777;28;20207;-87
2021/05/11 06:02:42;;;;;;;5.13;2.50;;;18.20;99.90;;;;;;5076718;28;20215;-86
2021/05/11 06:05:10;;;;;;;3.72;2.40;;;18.40;99.90;;;;;;5047677;28;20242;-86
2021/05/11 06:07:36;;;;;;;10.93;2.53;;;19.10;99.90;;;;;;5058817;28;20191;-86
2021/05/11 06:10:02;;;;;;;4.93;2.30;;;20.60;99.90;;;;;;5070304;28;20179;-87
2021/05/11 06:12:44;;;;;;;6.00;2.30;;;23.30;99.90;;;;;;5057085;28;20241;-88
2021/05/11 06:17:40;;;;;;;4.45;2.10;;;28.10;99.90;;;;;;5056454;28;20180;-88
2021/05/11 06:20:06;;;;;;;6.47;3.30;;;29.40;99.90;;;;;;5056323;28;20316;-88
2021/05/11 06:22:32;;;;;;;6.47;2.13;;;30.70;99.80;;;;;;5061115;28;20175;-88
2021/05/11 06:24:59;;;;;;;8.32;2.17;;;31.60;97.30;;;;;;5067672;28;20536;-87
2021/05/11 06:27:25;;;;;;;6.65;2.35;;;32.40;95.00;;;;;;5051583;28;20198;-86
2021/05/11 06:29:56;;;;;;;8.02;2.08;;;31.90;94.00;;;;;;5069132;28;20612;-88
2021/05/11 06:32:22;;;;;;;4.22;2.20;;;31.80;94.00;;;;;;5052378;28;20600;-87
2021/05/11 06:34:52;;;;;;;5.82;2.38;;;32.40;93.00;;;;;;5057127;28;20186;-88
2021/05/11 06:37:18;;;;;;;7.13;2.25;;;32.10;92.70;;;;;;5054813;28;20616;-88
2021/05/11 06:39:46;;;;;;;6.68;2.17;;;31.10;93.10;;;;;;5037191;28;20316;-88
2021/05/11 06:42:12;;;;;;;5.82;1.83;;;30.40;93.70;;;;;;5053857;28;20175;-88
2021/05/11 06:54:54;;;;;;;5.45;2.60;;;32.90;92.10;;;;;;5054120;28;20213;-88
2021/05/11 06:57:20;;;;;;;4.57;1.88;;;34.30;89.50;;;;;;5053186;28;20627;-88
2021/05/11 06:59:45;;;;;;;11.45;2.08;;;35.10;88.70;;;;;;5053552;28;20302;-88
2021/05/11 07:02:11;;;;;;;6.97;1.73;;;35.10;85.50;;;;;;5053693;28;20171;-88
2021/05/11 07:04:38;;;;;;;6.10;1.60;;;35.50;84.50;;;;;;5052988;28;20639;-87
2021/05/11 07:07:10;;;;;;;3.72;1.60;;;35.70;83.20;;;;;;5053461;28;20168;-86
2021/05/11 07:14:35;;;;;;;7.18;1.88;;;37.00;76.80;;;;;;5054497;28;20190;-85
2021/05/11 07:17:01;;;;;;;5.82;1.13;;;37.50;75.80;;;;;;5052400;28;20166;-85
2021/05/11 07:19:28;;;;;;;4.07;1.70;;;38.00;74.90;;;;;;5054049;28;20194;-86
2021/05/11 07:21:54;;;;;;;3.17;1.45;;;37.80;73.40;;;;;;5053063;28;20163;-86
2021/05/11 07:24:24;;;;;;;3.80;1.35;;;37.10;70.90;;;;;;5052843;28;20624;-85
2021/05/11 07:32:03;;;;;;;10.02;1.88;;;38.30;70.30;;;;;;5053058;28;20206;-85
2021/05/11 07:34:29;;;;;;;3.15;1.52;;;38.90;68.30;;;;;;5053858;28;20197;-87
2021/05/11 07:36:55;;;;;;;3.58;1.52;;;38.60;69.50;;;;;;5053924;28;20171;-88
2021/05/11 07:39:23;;;;;;;7.68;1.40;;;38.30;70.60;;;;;;5052440;28;20197;-88
2021/05/11 07:41:49;;;;;;;3.92;1.60;;;38.00;69.40;;;;;;5053963;28;20254;-87
2021/05/11 07:44:15;;;;;;;3.90;1.40;;;37.30;68.70;;;;;;5052335;28;20205;-88
2021/05/11 07:46:47;;;;;;;3.17;1.40;;;37.60;69.30;;;;;;5053699;28;20166;-88
2021/05/11 07:52:28;;;;;;;10.48;2.10;;;38.80;66.00;;;;;;5052852;28;20610;-89
2021/05/11 08:15:59;;;;;;;6.00;1.65;;;33.70;72.50;;;;;;5053755;28;20154;-87
2021/05/11 08:29:03;;;;;;;2.88;1.48;;;31.00;78.70;;;;;;5057378;28;20244;-87
2021/05/11 08:31:29;;;;;;;4.60;1.55;;;30.50;80.70;;;;;;5056433;28;20563;-87
2021/05/11 08:33:54;;;;;;;3.78;1.70;;;30.40;80.20;;;;;;5056016;28;20612;-87
2021/05/11 08:36:20;;;;;;;6.68;1.92;;;30.30;81.20;;;;;;5061715;28;20205;-87
2021/05/11 08:38:46;;;;;;;6.53;1.50;;;30.00;82.00;;;;;;5071454;28;20175;-91
2021/05/11 08:41:11;;;;;;;5.35;1.60;;;30.00;81.30;;;;;;5060733;28;20345;-87
2021/05/11 08:43:40;;;;;;;8.15;1.73;;;30.30;79.50;;;;;;5056367;28;20240;-87
2021/05/11 08:46:08;;;;;;;5.88;1.50;;;31.30;78.00;;;;;;5053062;28;20222;-87
2021/05/11 08:48:34;;;;;;;10.25;1.73;;;31.60;79.60;;;;;;5037233;28;20226;-88
2021/05/11 09:23:31;;;;;;;4.75;1.40;;;27.00;81.60;;;;;;5053636;28;20183;-81
2021/05/11 09:24:54;;;;;;;4.78;1.27;;;25.70;85.30;;;;;;5046821;28;20179;-82
2021/05/11 10:12:42;;;;;;;4.22;1.30;;;27.30;81.60;;;;;;5056427;28;20224;-92
2021/05/11 10:39:10;;;;;;;4.18;1.20;;;32.30;71.40;;;;;;5055981;28;20199;-94
2021/05/11 10:47:00;;;;;;;3.92;1.45;;;32.80;70.80;;;;;;5055731;28;20171;-93
2021/05/11 10:49:52;;;;;;;4.30;1.48;;;33.20;70.90;;;;;;5062306;28;20202;-93
2021/05/11 10:52:24;;;;;;;2.88;1.20;;;33.90;69.20;;;;;;5071444;28;20159;-93
2021/05/11 10:55:15;;;;;;;4.28;1.35;;;35.60;68.00;;;;;;5075412;28;20190;-94
2021/05/11 10:57:57;;;;;;;3.22;1.00;;;35.80;67.40;;;;;;5055852;28;20207;-93
2021/05/11 11:03:16;;;;;;;3.47;1.17;;;34.90;68.10;;;;;;5055397;28;20167;-94
2021/05/11 11:05:55;;;;;;;6.55;1.30;;;36.20;66.90;;;;;;5054214;28;20163;-93
2021/05/11 11:08:30;;;;;;;5.03;1.50;;;37.10;65.30;;;;;;5066801;28;20166;-93
2021/05/11 11:11:21;;;;;;;5.10;1.45;;;37.70;64.20;;;;;;5067949;28;20201;-93
2021/05/11 11:13:49;;;;;;;3.15;1.45;;;38.10;63.50;;;;;;5093671;28;20167;-94
2021/05/11 11:16:16;;;;;;;3.28;1.20;;;38.80;64.60;;;;;;5053431;28;20163;-94
2021/05/11 11:18:44;;;;;;;6.95;1.42;;;39.70;62.90;;;;;;5054662;28;20167;-94
2021/05/11 11:23:42;;;;;;;4.05;1.33;;;39.60;59.30;;;;;;5054288;28;20181;-78
2021/05/11 11:26:09;;;;;;;6.13;1.58;;;40.20;60.00;;;;;;5053457;28;20171;-76
2021/05/11 11:28:36;;;;;;;3.25;1.20;;;40.60;57.60;;;;;;5053623;28;20278;-79
2021/05/11 11:31:19;;;;;;;2.13;0.95;;;40.20;58.40;;;;;;5052861;28;20187;-79
2021/05/11 11:33:45;;;;;;;5.13;1.10;;;39.00;58.30;;;;;;5053624;28;20170;-79
2021/05/11 11:36:30;;;;;;;5.07;1.20;;;37.10;58.10;;;;;;5055006;28;20171;-79
2021/05/11 11:38:58;;;;;;;3.72;1.38;;;35.30;60.50;;;;;;5063007;28;20174;-79
2021/05/11 11:41:25;;;;;;;3.65;1.45;;;34.20;61.40;;;;;;5062605;28;20178;-79
2021/05/11 11:43:51;;;;;;;4.68;1.10;;;32.60;62.30;;;;;;5058644;28;20179;-77
2021/05/11 11:46:28;;;;;;;5.85;1.35;;;31.60;64.90;;;;;;5055825;28;20227;-79
2021/05/11 11:49:15;;;;;;;3.17;1.38;;;31.10;64.80;;;;;;5052101;28;20220;-78
2021/05/11 11:51:41;;;;;;;3.00;1.40;;;30.20;67.00;;;;;;5051718;28;20201;-78
2021/05/11 11:54:17;;;;;;;5.82;1.27;;;29.90;69.20;;;;;;5052734;28;20171;-80
2021/05/11 11:59:26;;;;;;;7.75;1.60;;;28.90;73.20;;;;;;5052242;28;20685;-78
2021/05/11 12:01:57;;;;;;;8.38;1.60;;;28.40;72.20;;;;;;5053689;28;20246;-78
2021/05/11 12:04:24;;;;;;;3.80;1.17;;;28.20;72.80;;;;;;5051947;28;20248;-78
2021/05/11 12:06:51;;;;;;;4.38;1.30;;;28.10;73.20;;;;;;5052555;28;20164;-78
2021/05/11 12:09:20;;;;;;;5.72;1.63;;;27.70;75.00;;;;;;5052084;28;20198;-78
2021/05/11 12:11:46;;;;;;;5.47;1.45;;;27.60;74.60;;;;;;5051873;28;20220;-78
2021/05/11 12:14:16;;;;;;;3.58;1.20;;;26.90;78.60;;;;;;5053851;28;20535;-78
2021/05/11 12:16:44;;;;;;;5.25;1.30;;;26.40;81.00;;;;;;5053190;28;20180;-78
2021/05/11 12:19:14;;;;;;;8.00;1.42;;;25.90;81.50;;;;;;5052782;28;20171;-78
2021/05/11 12:22:00;;;;;;;4.78;1.60;;;24.90;82.60;;;;;;5053592;28;20156;-78
2021/05/11 12:24:37;;;;;;;2.05;0.95;;;23.50;86.30;;;;;;5052883;28;20167;-78
2021/05/11 12:27:21;;;;;;;4.40;1.83;;;22.00;91.20;;;;;;5052926;28;20172;-77
2021/05/11 12:30:05;;;;;;;6.03;1.38;;;20.90;94.70;;;;;;5051947;28;20282;-78
2021/05/11 12:32:32;;;;;;;8.43;1.30;;;20.20;99.30;;;;;;5053136;28;20163;-77
2021/05/11 12:35:05;;;;;;;7.05;1.52;;;19.40;99.90;;;;;;5052918;28;20180;-78
2021/05/11 12:38:01;;;;;;;3.97;1.50;;;19.10;99.90;;;;;;5069064;28;20635;-78
2021/05/11 12:40:44;;;;;;;4.57;1.08;;;18.90;99.90;;;;;;5072979;28;20674;-78
2021/05/11 12:43:10;;;;;;;7.22;1.50;;;18.60;99.90;;;;;;5057942;28;20198;-78
2021/05/11 12:45:50;;;;;;;8.57;1.20;;;18.50;99.90;;;;;;5051208;28;20195;-79
2021/05/11 12:48:15;;;;;;;4.32;1.23;;;18.40;99.90;;;;;;5053023;28;20151;-78
2021/05/11 12:50:43;;;;;;;3.28;1.08;;;18.30;99.90;;;;;;5053217;28;20262;-78
2021/05/11 12:53:30;;;;;;;4.63;1.30;;;18.30;99.90;;;;;;5051638;28;20168;-79
2021/05/11 13:01:08;;;;;;;2.88;1.35;;;18.10;99.90;;;;;;5053104;28;20199;-78
2021/05/11 13:03:56;;;;;;;8.25;1.40;;;17.90;99.90;;;;;;5053059;28;20231;-78
2021/05/11 13:09:38;;;;;;;3.88;1.50;;;18.10;99.90;;;;;;5036394;28;20158;-78
2021/05/11 13:17:39;;;;;;;4.88;1.38;;;17.80;99.90;;;;;;5055865;28;20194;-78
2021/05/11 13:20:19;;;;;;;3.45;1.30;;;17.90;99.90;;;;;;5055013;28;20710;-77
2021/05/11 13:23:19;;;;;;;5.55;1.58;;;18.00;99.90;;;;;;5062705;28;20162;-80
2021/05/11 13:25:38;;;;;;;3.65;1.20;;;18.10;99.90;;;;;;5079739;28;20213;-81
2021/05/11 13:33:43;;;;;;;1.67;0.95;;;18.20;99.90;;;;;;5055874;28;20213;-78
2021/05/11 13:36:09;;;;;;;0.68;0.55;;;18.10;99.90;;;;;;5055713;28;20228;-78
2021/05/11 13:38:34;;;;;;;2.85;0.98;;;18.00;99.90;;;;;;5055831;28;20168;-77
2021/05/11 13:41:00;;;;;;;1.38;0.70;;;18.20;99.90;;;;;;5063052;28;20210;-76
2021/05/11 13:43:27;;;;;;;4.25;1.10;;;18.40;99.90;;;;;;5080012;28;20155;-77
2021/05/11 13:45:53;;;;;;;2.15;0.88;;;18.70;99.90;;;;;;5078919;28;20207;-82
2021/05/11 13:48:25;;;;;;;3.90;1.02;;;18.90;99.90;;;;;;5057842;28;20180;-77
2021/05/11 13:53:25;;;;;;;1.42;0.63;;;19.00;99.90;;;;;;5055619;28;20602;-77
2021/05/11 14:03:56;;;;;;;1.92;0.90;;;19.40;99.90;;;;;;5055306;28;20172;-77
2021/05/11 14:06:21;;;;;;;2.92;1.02;;;19.20;99.90;;;;;;5055309;28;20199;-77
2021/05/11 14:08:47;;;;;;;3.20;1.13;;;19.10;99.90;;;;;;5055035;28;20187;-77
2021/05/11 14:11:14;;;;;;;2.55;1.10;;;19.20;99.90;;;;;;5055299;28;20176;-77
2021/05/11 14:13:40;;;;;;;5.32;1.15;;;19.50;99.90;;;;;;5055393;28;20178;-77
2021/05/11 14:16:06;;;;;;;3.33;1.30;;;19.60;99.90;;;;;;5053966;28;20662;-77
2021/05/11 14:18:33;;;;;;;2.83;1.05;;;19.50;99.90;;;;;;5054789;28;20632;-78
2021/05/11 14:20:59;;;;;;;3.58;1.33;;;19.60;99.90;;;;;;5054809;28;20234;-77
2021/05/11 14:23:24;;;;;;;7.35;1.70;;;19.40;99.90;;;;;;5054953;28;20178;-77
2021/05/11 14:25:50;;;;;;;4.00;1.52;;;19.10;99.90;;;;;;5054414;28;20175;-77
2021/05/11 14:28:16;;;;;;;4.22;1.95;;;19.20;99.90;;;;;;5054435;28;20688;-77
2021/05/11 14:30:42;;;;;;;7.43;1.60;;;19.30;99.90;;;;;;5054866;28;20227;-79
2021/05/11 14:33:07;;;;;;;6.82;1.42;;;19.40;99.90;;;;;;5054769;28;20237;-78
2021/05/11 14:35:33;;;;;;;4.07;1.38;;;19.40;99.90;;;;;;5047864;28;20180;-78
2021/05/11 14:37:58;;;;;;;6.38;1.52;;;19.30;99.90;;;;;;5054412;28;20678;-77
2021/05/11 14:40:24;;;;;;;6.10;2.38;;;19.20;99.90;;;;;;5086626;28;20638;-76
2021/05/11 14:42:51;;;;;;;2.58;1.30;;;18.60;99.90;;;;;;5053403;28;20250;-77
2021/05/11 14:45:16;;;;;;;4.28;1.48;;;18.00;99.90;;;;;;5053985;28;20184;-80
2021/05/11 14:47:45;;;;;;;4.03;1.58;;;17.60;99.90;;;;;;5036449;28;20270;-79
2021/05/11 14:50:16;;;;;;;6.55;2.10;;;17.60;99.90;;;;;;5052799;28;20537;-79
2021/05/11 14:52:41;;;;;;;5.47;1.80;;;17.90;99.90;;;;;;5054262;28;20172;-78
2021/05/11 14:55:07;;;;;;;5.05;1.98;;;18.10;99.90;;;;;;5053676;28;20509;-79
2021/05/11 14:57:34;;;;;;;7.82;1.52;;;18.50;99.90;;;;;;5053837;28;20162;-78
2021/05/11 14:59:59;;;;;;;3.72;1.88;;;18.50;99.90;;;;;;5052719;28;20221;-77
2021/05/11 15:02:25;;;;;;;8.90;2.20;;;18.20;99.90;;;;;;5054094;28;20178;-77
2021/05/11 15:04:52;;;;;;;8.82;1.92;;;17.40;99.90;;;;;;5054072;28;20195;-78
2021/05/11 15:07:17;;;;;;;12.70;2.10;;;17.30;99.90;;;;;;5054369;28;20306;-78
2021/05/11 15:09:43;;;;;;;4.78;2.05;;;18.00;99.90;;;;;;5052874;28;20591;-79
2021/05/11 15:12:09;;;;;;;7.25;2.35;;;18.60;99.90;;;;;;5052386;28;20656;-79
2021/05/11 15:14:34;;;;;;;5.00;1.85;;;19.20;99.90;;;;;;5053582;28;20171;-79
2021/05/11 15:17:58;;;;;;;3.55;1.77;;;19.70;99.90;;;;;;5053591;28;20159;-79
2021/05/11 15:19:59;;;;;;;4.75;1.60;;;19.80;99.90;;;;;;5033462;28;20612;-78
2021/05/11 15:22:25;;;;;;;14.55;1.88;;;20.10;99.90;;;;;;5035832;28;20175;-77
2021/05/11 15:24:54;;;;;;;12.88;1.73;;;20.40;99.90;;;;;;5048616;28;20171;-78
2021/05/11 15:27:20;;;;;;;6.18;1.50;;;20.40;99.90;;;;;;5053600;28;20172;-79
2021/05/11 15:29:46;;;;;;;3.42;1.90;;;20.80;99.90;;;;;;5052782;28;20179;-79
2021/05/11 15:32:40;;;;;;;8.07;1.85;;;20.70;99.90;;;;;;5053373;28;20523;-79
2021/05/11 15:35:12;;;;;;;3.10;1.40;;;20.80;99.90;;;;;;5053944;28;20163;-79
2021/05/11 15:37:39;;;;;;;4.60;1.70;;;21.10;99.90;;;;;;5053647;28;20185;-79
2021/05/11 15:40:07;;;;;;;5.97;1.50;;;21.30;99.90;;;;;;5053188;28;20593;-80
2021/05/11 15:42:32;;;;;;;8.75;2.47;;;21.40;99.90;;;;;;5057971;28;20179;-80
2021/05/11 15:44:58;;;;;;;5.90;1.50;;;20.90;99.90;;;;;;5064745;28;20700;-79
2021/05/11 15:47:24;;;;;;;6.00;1.83;;;20.90;99.90;;;;;;5051508;28;20233;-80
2021/05/11 15:49:49;;;;;;;4.40;1.70;;;20.20;99.90;;;;;;5053311;28;20179;-79
2021/05/11 15:52:15;;;;;;;4.88;1.42;;;20.50;99.90;;;;;;5035041;28;20336;-80
2021/05/11 15:54:41;;;;;;;2.83;1.58;;;20.90;99.90;;;;;;5074525;28;20194;-80
2021/05/11 15:57:07;;;;;;;6.72;1.90;;;21.00;99.90;;;;;;5074267;28;20243;-80
2021/05/11 15:59:32;;;;;;;4.95;1.20;;;21.00;99.90;;;;;;5038832;28;20231;-80
2021/05/11 16:01:59;;;;;;;3.83;1.27;;;21.30;99.90;;;;;;5048315;28;20183;-81
2021/05/11 16:04:25;;;;;;;3.10;1.02;;;21.50;99.90;;;;;;5051920;28;20178;-80
2021/05/11 16:06:51;;;;;;;2.40;1.30;;;21.70;99.90;;;;;;5051854;28;20266;-80
2021/05/11 16:09:16;;;;;;;8.40;1.25;;;21.00;99.90;;;;;;5045152;28;20211;-80
2021/05/11 16:11:42;;;;;;;3.38;1.38;;;20.40;99.90;;;;;;5052499;28;20187;-81
2021/05/11 16:14:08;;;;;;;2.35;1.38;;;20.60;99.90;;;;;;5082337;28;20197;-81
2021/05/11 16:16:34;;;;;;;3.75;1.20;;;20.70;99.90;;;;;;5052209;28;20532;-80
2021/05/11 16:19:00;;;;;;;4.68;1.23;;;20.70;99.90;;;;;;5053040;28;20176;-80
2021/05/11 16:21:25;;;;;;;3.03;1.10;;;20.50;99.90;;;;;;5052815;28;20233;-80
2021/05/11 16:23:52;;;;;;;4.03;1.13;;;20.40;99.90;;;;;;5052060;28;20266;-78
2021/05/11 16:26:18;;;;;;;5.95;1.40;;;20.20;99.90;;;;;;5052193;28;20172;-85
2021/05/11 16:28:44;;;;;;;5.90;1.42;;;20.20;99.90;;;;;;5054327;28;20266;-87
2021/05/11 16:31:10;;;;;;;5.18;1.45;;;20.30;99.90;;;;;;5051880;28;20195;-87
2021/05/11 16:33:36;;;;;;;2.78;0.88;;;20.30;99.90;;;;;;5054658;28;20199;-87
2021/05/11 16:36:02;;;;;;;2.28;1.00;;;20.20;99.90;;;;;;5052845;28;20198;-87
2021/05/11 16:38:28;;;;;;;4.25;1.38;;;20.20;99.90;;;;;;5052223;28;20211;-87
2021/05/11 16:40:55;;;;;;;3.00;1.17;;;20.00;99.90;;;;;;5055712;28;20237;-87
2021/05/11 16:43:23;;;;;;;4.72;1.40;;;19.90;99.90;;;;;;5055089;28;20187;-87
2021/05/11 16:45:49;;;;;;;5.47;1.13;;;19.80;99.90;;;;;;5056610;28;20168;-87
2021/05/11 16:48:16;;;;;;;3.00;1.10;;;19.70;99.90;;;;;;5054433;28;20179;-87
2021/05/11 16:50:42;;;;;;;3.30;1.35;;;19.80;99.90;;;;;;5084422;28;20226;-90
2021/05/11 16:53:13;;;;;;;3.97;1.33;;;19.80;99.90;;;;;;5076045;28;20179;-86
2021/05/11 16:55:39;;;;;;;4.78;1.40;;;19.70;99.90;;;;;;5039800;28;20540;-86
2021/05/11 16:58:04;;;;;;;2.10;1.40;;;19.60;99.90;;;;;;5049364;28;20173;-87
2021/05/11 17:00:32;;;;;;;4.07;1.40;;;19.20;99.90;;;;;;5060982;28;20202;-87
2021/05/11 17:02:58;;;;;;;8.98;1.50;;;18.80;99.90;;;;;;5055363;28;20174;-85
2021/05/11 17:05:24;;;;;;;3.92;1.35;;;18.70;99.90;;;;;;5056432;28;20183;-87
2021/05/11 17:07:51;;;;;;;5.85;1.10;;;18.40;99.90;;;;;;5056152;28;20175;-89
2021/05/11 17:10:18;;;;;;;14.77;1.30;;;18.10;99.90;;;;;;5056872;28;20576;-88
2021/05/11 17:12:44;;;;;;;4.75;1.10;;;17.90;99.90;;;;;;5059364;28;20527;-88